الصفحة الرئيسية
METAR-TAF:

METAR-TAF

مطار :

Kingaroy, أستراليا

دائرة عرض: 26-34-48S, خط طول: 151-50-30E, ارتفاع: 455 متر

مراقبة الطقس الحالي

تاريخ ووقت الإصدار 13 دقيقة قبل الساعة 18:33UTC
ريح 5 عقدة من الشمال
درجة الحرارة 20°درجة مئوية
الرطوبة 88%
ضغط 1016 hPa
الرؤية 10 كم أو أكثر
غيوم مفككة على ارتفاع 1300 قدم
ملبد بالغيوم على ارتفاع 12000 قدم

METAR: YKRY 081833Z AUTO 35005KT 9999 // BKN013 OVC120 20/18 Q1016

زمن: 04:46 (18:46 UTC)


TAF: مفقودة

أرصاد الطقس والتوقعات من أكثر من 4000 مطار (تقارير الطقس للمطار METAR والتنبؤ بالطقس بالمطارTAF).

المحطات المتاحة هي النقط الصفراء والحمراء على الخريطة.

حرك المؤشر فوق النقطة لمعرفة اسم المحطة.

ثم انقر لمعرفة أرصاد وتوقعات الطقس.

لتغيير الخارطة: اضغط على الأزرار الخضراء مع رمز الصليب الأسود للتكبير. على الزر الأخضر مع شرطة للتصغير، أو على الأسهم الخضراء للخرائط المجاورة.


METAR-TAF: